FMEE/RUN METAR and TAF weather

Enter ICAO airport designator
Station Type Date Time Source
FMEE METAR 2022/06/27 18:00 UTC NOAA

FMEE 271800Z AUTO 18005KT 9999 BKN024/// BKN030/// BKN049/// 19/16 Q1023 NOSIG


Station Type Date Time Source
FMEE Decoded METAR 2022/06/27 18:00 UTC NOAA

Saint-Denis / Gillot, Reunion (FMEE) 20-53S 055-31E 25M
Jun 27, 2022 - 02:00 PM EDT / 2022.06.27 1800 UTC
Wind: from the S (180 degrees) at 6 MPH (5 KT):0
Visibility: greater than 7 mile(s):0
Sky conditions: mostly cloudy
Temperature: 66 F (19 C)
Dew Point: 60 F (16 C)
Relative Humidity: 82%
Pressure (altimeter): 30.21 in. Hg (1023 hPa)
ob: FMEE 271800Z AUTO 18005KT 9999 BKN024/// BKN030/// BKN049/// 19/16 Q1023 NOSIG
cycle: 18

Station Type Date Time Source
FMEE TAF 2022/06/27 18:06 UTC NOAA

TAF FMEE 271700Z 2718/2824 18005KT 9999 SCT040
BECMG 2804/2806 13018G28KT
BECMG 2812/2814 13010KT

Example: see airport list